sensor_id;sensor_type;location;lat;lon;timestamp;P1;durP1;ratioP1;P2;durP2;ratioP2
39982;SDS011;25670;44.782;10.356;2023-07-20T00:02:03;2.63;;;1.92;;
39982;SDS011;25670;44.782;10.356;2023-07-20T00:04:31;7.88;;;2.20;;
39982;SDS011;25670;44.782;10.356;2023-07-20T00:06:58;4.78;;;1.88;;
39982;SDS011;25670;44.782;10.356;2023-07-20T00:09:26;3.15;;;1.80;;
39982;SDS011;25670;44.782;10.356;2023-07-20T00:11:52;4.13;;;1.95;;
39982;SDS011;25670;44.782;10.356;2023-07-20T00:14:19;4.60;;;2.72;;
39982;SDS011;25670;44.782;10.356;2023-07-20T00:16:46;3.35;;;2.25;;
39982;SDS011;25670;44.782;10.356;2023-07-20T00:19:12;4.78;;;2.17;;
39982;SDS011;25670;44.782;10.356;2023-07-20T00:21:39;2.65;;;2.42;;
39982;SDS011;25670;44.782;10.356;2023-07-20T00:24:06;3.63;;;2.25;;
39982;SDS011;25670;44.782;10.356;2023-07-20T00:26:32;12.05;;;2.88;;
39982;SDS011;25670;44.782;10.356;2023-07-20T00:28:58;6.53;;;2.50;;
39982;SDS011;25670;44.782;10.356;2023-07-20T00:31:25;4.05;;;2.30;;
39982;SDS011;25670;44.782;10.356;2023-07-20T00:33:52;5.90;;;2.70;;
39982;SDS011;25670;44.782;10.356;2023-07-20T00:36:19;3.35;;;2.28;;
39982;SDS011;25670;44.782;10.356;2023-07-20T00:38:45;9.50;;;2.95;;
39982;SDS011;25670;44.782;10.356;2023-07-20T00:41:11;5.35;;;2.50;;
39982;SDS011;25670;44.782;10.356;2023-07-20T00:43:39;7.57;;;2.80;;
39982;SDS011;25670;44.782;10.356;2023-07-20T00:46:07;2.75;;;2.53;;
39982;SDS011;25670;44.782;10.356;2023-07-20T00:48:35;4.95;;;2.45;;
39982;SDS011;25670;44.782;10.356;2023-07-20T00:51:02;4.70;;;2.50;;
39982;SDS011;25670;44.782;10.356;2023-07-20T00:53:28;11.20;;;2.90;;
39982;SDS011;25670;44.782;10.356;2023-07-20T00:55:55;3.58;;;2.90;;
39982;SDS011;25670;44.782;10.356;2023-07-20T00:58:22;3.92;;;2.58;;
39982;SDS011;25670;44.782;10.356;2023-07-20T01:00:49;4.20;;;2.40;;
39982;SDS011;25670;44.782;10.356;2023-07-20T01:03:15;4.10;;;2.40;;
39982;SDS011;25670;44.782;10.356;2023-07-20T01:05:42;2.47;;;2.20;;
39982;SDS011;25670;44.782;10.356;2023-07-20T01:08:24;2.88;;;2.65;;
39982;SDS011;25670;44.782;10.356;2023-07-20T01:11:02;2.78;;;2.58;;
39982;SDS011;25670;44.782;10.356;2023-07-20T01:13:53;3.10;;;2.15;;
39982;SDS011;25670;44.782;10.356;2023-07-20T01:16:20;4.63;;;3.03;;
39982;SDS011;25670;44.782;10.356;2023-07-20T01:18:47;2.35;;;2.13;;
39982;SDS011;25670;44.782;10.356;2023-07-20T01:21:15;3.38;;;2.40;;
39982;SDS011;25670;44.782;10.356;2023-07-20T01:26:27;4.82;;;2.25;;
39982;SDS011;25670;44.782;10.356;2023-07-20T01:29:35;3.70;;;2.22;;
39982;SDS011;25670;44.782;10.356;2023-07-20T01:32:40;4.85;;;2.67;;
39982;SDS011;25670;44.782;10.356;2023-07-20T01:35:10;6.72;;;2.60;;
39982;SDS011;25670;44.782;10.356;2023-07-20T01:37:40;3.53;;;2.72;;
39982;SDS011;25670;44.782;10.356;2023-07-20T01:40:11;4.38;;;2.55;;
39982;SDS011;25670;44.782;10.356;2023-07-20T01:42:43;3.13;;;2.83;;
39982;SDS011;25670;44.782;10.356;2023-07-20T01:45:11;4.53;;;3.80;;
39982;SDS011;25670;44.782;10.356;2023-07-20T01:47:38;6.05;;;2.88;;
39982;SDS011;25670;44.782;10.356;2023-07-20T01:50:04;4.43;;;3.72;;
39982;SDS011;25670;44.782;10.356;2023-07-20T01:52:32;5.85;;;3.20;;
39982;SDS011;25670;44.782;10.356;2023-07-20T01:54:58;8.75;;;3.72;;
39982;SDS011;25670;44.782;10.356;2023-07-20T01:57:25;5.25;;;3.85;;
39982;SDS011;25670;44.782;10.356;2023-07-20T01:59:51;7.72;;;5.82;;
39982;SDS011;25670;44.782;10.356;2023-07-20T02:02:18;12.25;;;4.28;;
39982;SDS011;25670;44.782;10.356;2023-07-20T02:04:44;8.57;;;4.70;;
39982;SDS011;25670;44.782;10.356;2023-07-20T02:07:11;9.00;;;5.30;;
39982;SDS011;25670;44.782;10.356;2023-07-20T02:09:37;7.75;;;4.25;;
39982;SDS011;25670;44.782;10.356;2023-07-20T02:12:07;8.13;;;4.97;;
39982;SDS011;25670;44.782;10.356;2023-07-20T02:14:34;6.18;;;5.30;;
39982;SDS011;25670;44.782;10.356;2023-07-20T02:17:00;4.85;;;4.38;;
39982;SDS011;25670;44.782;10.356;2023-07-20T02:19:30;6.82;;;4.93;;
39982;SDS011;25670;44.782;10.356;2023-07-20T02:21:57;10.30;;;4.50;;
39982;SDS011;25670;44.782;10.356;2023-07-20T02:24:23;9.85;;;5.07;;
39982;SDS011;25670;44.782;10.356;2023-07-20T02:26:51;11.40;;;5.43;;
39982;SDS011;25670;44.782;10.356;2023-07-20T02:29:17;11.13;;;5.43;;
39982;SDS011;25670;44.782;10.356;2023-07-20T02:31:44;8.60;;;4.05;;
39982;SDS011;25670;44.782;10.356;2023-07-20T02:34:10;4.60;;;4.20;;
39982;SDS011;25670;44.782;10.356;2023-07-20T02:36:36;23.42;;;4.80;;
39982;SDS011;25670;44.782;10.356;2023-07-20T02:39:03;7.20;;;5.38;;
39982;SDS011;25670;44.782;10.356;2023-07-20T02:41:30;4.97;;;3.80;;
39982;SDS011;25670;44.782;10.356;2023-07-20T02:43:56;5.43;;;4.93;;
39982;SDS011;25670;44.782;10.356;2023-07-20T02:46:23;4.38;;;3.97;;
39982;SDS011;25670;44.782;10.356;2023-07-20T02:48:49;9.05;;;4.20;;
39982;SDS011;25670;44.782;10.356;2023-07-20T02:51:15;6.90;;;4.47;;
39982;SDS011;25670;44.782;10.356;2023-07-20T02:53:42;6.85;;;4.65;;
39982;SDS011;25670;44.782;10.356;2023-07-20T02:56:08;7.05;;;5.53;;
39982;SDS011;25670;44.782;10.356;2023-07-20T02:58:34;5.28;;;4.78;;
39982;SDS011;25670;44.782;10.356;2023-07-20T03:01:04;9.70;;;4.85;;
39982;SDS011;25670;44.782;10.356;2023-07-20T03:03:30;13.38;;;5.97;;
39982;SDS011;25670;44.782;10.356;2023-07-20T03:05:56;5.18;;;4.60;;
39982;SDS011;25670;44.782;10.356;2023-07-20T03:08:24;7.10;;;5.60;;
39982;SDS011;25670;44.782;10.356;2023-07-20T03:10:51;5.80;;;5.30;;
39982;SDS011;25670;44.782;10.356;2023-07-20T03:13:17;13.18;;;5.35;;
39982;SDS011;25670;44.782;10.356;2023-07-20T03:15:44;6.90;;;4.20;;
39982;SDS011;25670;44.782;10.356;2023-07-20T03:18:10;5.32;;;4.45;;
39982;SDS011;25670;44.782;10.356;2023-07-20T03:20:37;11.52;;;5.22;;
39982;SDS011;25670;44.782;10.356;2023-07-20T03:23:04;7.32;;;4.57;;
39982;SDS011;25670;44.782;10.356;2023-07-20T03:25:31;14.52;;;5.53;;
39982;SDS011;25670;44.782;10.356;2023-07-20T03:27:57;6.00;;;5.45;;
39982;SDS011;25670;44.782;10.356;2023-07-20T03:30:24;4.80;;;4.40;;
39982;SDS011;25670;44.782;10.356;2023-07-20T03:32:51;6.32;;;4.65;;
39982;SDS011;25670;44.782;10.356;2023-07-20T03:35:18;5.47;;;4.20;;
39982;SDS011;25670;44.782;10.356;2023-07-20T03:37:44;9.85;;;3.83;;
39982;SDS011;25670;44.782;10.356;2023-07-20T03:40:11;8.20;;;3.88;;
39982;SDS011;25670;44.782;10.356;2023-07-20T03:42:38;6.82;;;4.32;;
39982;SDS011;25670;44.782;10.356;2023-07-20T03:45:05;6.75;;;3.97;;
39982;SDS011;25670;44.782;10.356;2023-07-20T03:47:31;4.15;;;3.65;;
39982;SDS011;25670;44.782;10.356;2023-07-20T03:49:58;6.65;;;4.03;;
39982;SDS011;25670;44.782;10.356;2023-07-20T03:52:24;4.28;;;3.80;;
39982;SDS011;25670;44.782;10.356;2023-07-20T03:54:51;5.63;;;3.85;;
39982;SDS011;25670;44.782;10.356;2023-07-20T03:57:17;5.57;;;3.72;;
39982;SDS011;25670;44.782;10.356;2023-07-20T03:59:47;4.13;;;3.40;;
39982;SDS011;25670;44.782;10.356;2023-07-20T04:02:14;4.47;;;3.80;;
39982;SDS011;25670;44.782;10.356;2023-07-20T04:04:42;6.68;;;3.92;;
39982;SDS011;25670;44.782;10.356;2023-07-20T04:07:09;5.82;;;3.63;;
39982;SDS011;25670;44.782;10.356;2023-07-20T04:09:35;8.90;;;4.28;;
39982;SDS011;25670;44.782;10.356;2023-07-20T04:12:02;4.80;;;3.85;;
39982;SDS011;25670;44.782;10.356;2023-07-20T04:14:28;7.25;;;4.00;;
39982;SDS011;25670;44.782;10.356;2023-07-20T04:16:54;4.72;;;3.80;;
39982;SDS011;25670;44.782;10.356;2023-07-20T04:19:21;8.10;;;3.80;;
39982;SDS011;25670;44.782;10.356;2023-07-20T04:21:47;5.30;;;4.05;;
39982;SDS011;25670;44.782;10.356;2023-07-20T04:24:13;7.63;;;4.43;;
39982;SDS011;25670;44.782;10.356;2023-07-20T04:26:39;9.40;;;3.97;;
39982;SDS011;25670;44.782;10.356;2023-07-20T04:29:05;7.82;;;4.57;;
39982;SDS011;25670;44.782;10.356;2023-07-20T04:31:41;4.45;;;4.03;;
39982;SDS011;25670;44.782;10.356;2023-07-20T04:34:08;5.57;;;3.92;;
39982;SDS011;25670;44.782;10.356;2023-07-20T04:36:35;5.05;;;4.55;;
39982;SDS011;25670;44.782;10.356;2023-07-20T04:39:03;3.90;;;3.50;;
39982;SDS011;25670;44.782;10.356;2023-07-20T04:41:35;8.27;;;4.43;;
39982;SDS011;25670;44.782;10.356;2023-07-20T04:44:02;7.30;;;3.88;;
39982;SDS011;25670;44.782;10.356;2023-07-20T04:46:30;4.90;;;3.85;;
39982;SDS011;25670;44.782;10.356;2023-07-20T04:48:58;7.53;;;3.88;;
39982;SDS011;25670;44.782;10.356;2023-07-20T04:51:26;4.68;;;3.70;;
39982;SDS011;25670;44.782;10.356;2023-07-20T04:53:54;6.15;;;3.97;;
39982;SDS011;25670;44.782;10.356;2023-07-20T04:56:21;4.38;;;3.47;;
39982;SDS011;25670;44.782;10.356;2023-07-20T04:58:50;6.60;;;3.97;;
39982;SDS011;25670;44.782;10.356;2023-07-20T05:01:16;5.50;;;3.83;;
39982;SDS011;25670;44.782;10.356;2023-07-20T05:03:43;4.25;;;3.83;;
39982;SDS011;25670;44.782;10.356;2023-07-20T05:06:09;3.75;;;3.03;;
39982;SDS011;25670;44.782;10.356;2023-07-20T05:08:36;11.18;;;4.18;;
39982;SDS011;25670;44.782;10.356;2023-07-20T05:11:02;6.00;;;3.63;;
39982;SDS011;25670;44.782;10.356;2023-07-20T05:13:28;8.55;;;4.03;;
39982;SDS011;25670;44.782;10.356;2023-07-20T05:15:54;10.10;;;3.97;;
39982;SDS011;25670;44.782;10.356;2023-07-20T05:18:21;6.13;;;4.60;;
39982;SDS011;25670;44.782;10.356;2023-07-20T05:20:49;9.05;;;4.13;;
39982;SDS011;25670;44.782;10.356;2023-07-20T05:23:17;10.45;;;5.80;;
39982;SDS011;25670;44.782;10.356;2023-07-20T05:25:45;7.32;;;4.18;;
39982;SDS011;25670;44.782;10.356;2023-07-20T05:28:12;9.38;;;5.32;;
39982;SDS011;25670;44.782;10.356;2023-07-20T05:30:39;14.13;;;5.75;;
39982;SDS011;25670;44.782;10.356;2023-07-20T05:33:05;10.43;;;5.03;;
39982;SDS011;25670;44.782;10.356;2023-07-20T05:35:32;8.18;;;6.45;;
39982;SDS011;25670;44.782;10.356;2023-07-20T05:37:58;11.50;;;6.38;;
39982;SDS011;25670;44.782;10.356;2023-07-20T05:40:24;11.52;;;6.90;;
39982;SDS011;25670;44.782;10.356;2023-07-20T05:42:59;14.50;;;6.15;;
39982;SDS011;25670;44.782;10.356;2023-07-20T05:45:26;5.90;;;4.85;;
39982;SDS011;25670;44.782;10.356;2023-07-20T05:47:53;9.35;;;6.30;;
39982;SDS011;25670;44.782;10.356;2023-07-20T05:50:19;8.55;;;5.10;;
39982;SDS011;25670;44.782;10.356;2023-07-20T05:52:45;8.50;;;4.88;;
39982;SDS011;25670;44.782;10.356;2023-07-20T05:55:11;9.48;;;5.45;;
39982;SDS011;25670;44.782;10.356;2023-07-20T05:57:38;6.68;;;4.65;;
39982;SDS011;25670;44.782;10.356;2023-07-20T06:00:09;9.23;;;4.10;;
39982;SDS011;25670;44.782;10.356;2023-07-20T06:02:38;8.32;;;4.28;;
39982;SDS011;25670;44.782;10.356;2023-07-20T06:05:06;19.92;;;6.75;;
39982;SDS011;25670;44.782;10.356;2023-07-20T06:07:39;5.72;;;4.25;;
39982;SDS011;25670;44.782;10.356;2023-07-20T06:10:06;11.40;;;4.85;;
39982;SDS011;25670;44.782;10.356;2023-07-20T06:12:32;14.52;;;4.50;;
39982;SDS011;25670;44.782;10.356;2023-07-20T06:15:02;13.90;;;5.35;;
39982;SDS011;25670;44.782;10.356;2023-07-20T06:17:30;9.38;;;4.07;;
39982;SDS011;25670;44.782;10.356;2023-07-20T06:19:56;11.55;;;3.85;;
39982;SDS011;25670;44.782;10.356;2023-07-20T06:22:23;6.15;;;3.90;;
39982;SDS011;25670;44.782;10.356;2023-07-20T06:24:49;6.65;;;4.18;;
39982;SDS011;25670;44.782;10.356;2023-07-20T06:27:16;5.28;;;4.13;;
39982;SDS011;25670;44.782;10.356;2023-07-20T06:29:42;9.57;;;3.85;;
39982;SDS011;25670;44.782;10.356;2023-07-20T06:32:11;9.27;;;3.90;;
39982;SDS011;25670;44.782;10.356;2023-07-20T06:34:37;12.90;;;4.43;;
39982;SDS011;25670;44.782;10.356;2023-07-20T06:37:04;5.10;;;3.63;;
39982;SDS011;25670;44.782;10.356;2023-07-20T06:39:30;11.27;;;3.50;;
39982;SDS011;25670;44.782;10.356;2023-07-20T06:41:56;9.25;;;3.50;;
39982;SDS011;25670;44.782;10.356;2023-07-20T06:44:23;130.35;;;8.88;;
39982;SDS011;25670;44.782;10.356;2023-07-20T06:46:49;10.13;;;4.07;;
39982;SDS011;25670;44.782;10.356;2023-07-20T06:49:27;6.15;;;4.13;;
39982;SDS011;25670;44.782;10.356;2023-07-20T06:52:00;11.95;;;4.68;;
39982;SDS011;25670;44.782;10.356;2023-07-20T06:54:26;7.57;;;4.57;;
39982;SDS011;25670;44.782;10.356;2023-07-20T06:57:08;9.07;;;4.35;;
39982;SDS011;25670;44.782;10.356;2023-07-20T07:44:44;5.88;;;4.13;;
39982;SDS011;25670;44.782;10.356;2023-07-20T07:56:08;8.38;;;3.95;;
39982;SDS011;25670;44.782;10.356;2023-07-20T08:06:10;13.75;;;4.47;;
39982;SDS011;25670;44.782;10.356;2023-07-20T08:15:10;5.22;;;4.72;;
39982;SDS011;25670;44.782;10.356;2023-07-20T08:17:38;11.52;;;4.10;;
39982;SDS011;25670;44.782;10.356;2023-07-20T08:26:53;6.38;;;4.15;;
39982;SDS011;25670;44.782;10.356;2023-07-20T08:46:28;7.85;;;4.40;;
39982;SDS011;25670;44.782;10.356;2023-07-20T09:19:51;11.73;;;4.15;;
39982;SDS011;25670;44.782;10.356;2023-07-20T10:24:53;10.75;;;3.90;;
39982;SDS011;25670;44.782;10.356;2023-07-20T10:31:09;6.00;;;3.45;;
39982;SDS011;25670;44.782;10.356;2023-07-20T10:46:59;7.22;;;4.25;;
39982;SDS011;25670;44.782;10.356;2023-07-20T11:25:44;8.05;;;4.18;;
39982;SDS011;25670;44.782;10.356;2023-07-20T11:29:37;5.95;;;3.92;;
39982;SDS011;25670;44.782;10.356;2023-07-20T12:03:07;4.95;;;3.45;;
39982;SDS011;25670;44.782;10.356;2023-07-20T13:00:23;6.43;;;4.00;;
39982;SDS011;25670;44.782;10.356;2023-07-20T13:32:48;6.28;;;3.60;;
39982;SDS011;25670;44.782;10.356;2023-07-20T13:46:22;4.53;;;3.97;;
39982;SDS011;25670;44.782;10.356;2023-07-20T14:30:24;11.52;;;4.28;;
39982;SDS011;25670;44.782;10.356;2023-07-20T14:33:06;8.20;;;4.00;;
39982;SDS011;25670;44.782;10.356;2023-07-20T15:18:24;8.88;;;4.25;;
39982;SDS011;25670;44.782;10.356;2023-07-20T15:24:23;8.57;;;3.60;;
39982;SDS011;25670;44.782;10.356;2023-07-20T15:30:46;7.05;;;4.07;;
39982;SDS011;25670;44.782;10.356;2023-07-20T16:18:43;22.48;;;5.75;;
39982;SDS011;25670;44.782;10.356;2023-07-20T16:34:40;11.02;;;5.22;;
39982;SDS011;25670;44.782;10.356;2023-07-20T16:49:19;9.52;;;4.30;;
39982;SDS011;25670;44.782;10.356;2023-07-20T16:55:20;4.63;;;4.20;;
39982;SDS011;25670;44.782;10.356;2023-07-20T17:01:04;10.05;;;4.65;;
39982;SDS011;25670;44.782;10.356;2023-07-20T17:05:58;6.30;;;4.32;;
39982;SDS011;25670;44.782;10.356;2023-07-20T17:11:22;11.75;;;5.28;;
39982;SDS011;25670;44.782;10.356;2023-07-20T17:13:48;6.65;;;4.43;;
39982;SDS011;25670;44.782;10.356;2023-07-20T17:19:54;6.05;;;4.18;;
39982;SDS011;25670;44.782;10.356;2023-07-20T17:34:41;13.57;;;4.55;;
39982;SDS011;25670;44.782;10.356;2023-07-20T17:49:51;12.10;;;4.40;;
39982;SDS011;25670;44.782;10.356;2023-07-20T17:57:49;11.63;;;4.95;;
39982;SDS011;25670;44.782;10.356;2023-07-20T18:03:42;8.02;;;5.25;;
39982;SDS011;25670;44.782;10.356;2023-07-20T18:06:08;14.90;;;5.43;;
39982;SDS011;25670;44.782;10.356;2023-07-20T18:14:57;9.80;;;4.63;;
39982;SDS011;25670;44.782;10.356;2023-07-20T18:17:32;9.57;;;5.45;;
39982;SDS011;25670;44.782;10.356;2023-07-20T18:23:29;10.13;;;5.00;;
39982;SDS011;25670;44.782;10.356;2023-07-20T18:26:01;5.72;;;5.18;;
39982;SDS011;25670;44.782;10.356;2023-07-20T18:31:26;11.68;;;5.95;;
39982;SDS011;25670;44.782;10.356;2023-07-20T18:33:53;7.18;;;5.35;;
39982;SDS011;25670;44.782;10.356;2023-07-20T18:36:20;8.82;;;4.90;;
39982;SDS011;25670;44.782;10.356;2023-07-20T18:38:46;11.50;;;5.22;;
39982;SDS011;25670;44.782;10.356;2023-07-20T18:41:12;7.75;;;5.38;;
39982;SDS011;25670;44.782;10.356;2023-07-20T18:43:39;11.80;;;5.90;;
39982;SDS011;25670;44.782;10.356;2023-07-20T18:46:05;14.63;;;5.47;;
39982;SDS011;25670;44.782;10.356;2023-07-20T18:48:31;7.15;;;5.93;;
39982;SDS011;25670;44.782;10.356;2023-07-20T18:50:57;8.10;;;5.50;;
39982;SDS011;25670;44.782;10.356;2023-07-20T18:53:24;13.48;;;6.65;;
39982;SDS011;25670;44.782;10.356;2023-07-20T18:55:50;13.82;;;5.65;;
39982;SDS011;25670;44.782;10.356;2023-07-20T18:58:16;10.13;;;6.72;;
39982;SDS011;25670;44.782;10.356;2023-07-20T19:00:43;9.55;;;5.85;;
39982;SDS011;25670;44.782;10.356;2023-07-20T19:03:10;9.70;;;5.28;;
39982;SDS011;25670;44.782;10.356;2023-07-20T19:05:36;11.48;;;5.45;;
39982;SDS011;25670;44.782;10.356;2023-07-20T19:08:06;11.55;;;6.55;;
39982;SDS011;25670;44.782;10.356;2023-07-20T19:10:32;25.00;;;6.00;;
39982;SDS011;25670;44.782;10.356;2023-07-20T19:12:58;13.10;;;6.72;;
39982;SDS011;25670;44.782;10.356;2023-07-20T19:15:24;11.60;;;6.18;;
39982;SDS011;25670;44.782;10.356;2023-07-20T19:17:50;12.65;;;6.60;;
39982;SDS011;25670;44.782;10.356;2023-07-20T19:20:17;12.43;;;6.03;;
39982;SDS011;25670;44.782;10.356;2023-07-20T19:22:43;6.93;;;6.22;;
39982;SDS011;25670;44.782;10.356;2023-07-20T19:25:10;20.02;;;6.43;;
39982;SDS011;25670;44.782;10.356;2023-07-20T19:27:37;13.85;;;5.97;;
39982;SDS011;25670;44.782;10.356;2023-07-20T19:30:04;15.35;;;5.88;;
39982;SDS011;25670;44.782;10.356;2023-07-20T19:32:31;10.48;;;5.82;;
39982;SDS011;25670;44.782;10.356;2023-07-20T19:34:57;12.02;;;7.65;;
39982;SDS011;25670;44.782;10.356;2023-07-20T19:37:26;10.68;;;6.68;;
39982;SDS011;25670;44.782;10.356;2023-07-20T19:39:52;7.88;;;5.78;;
39982;SDS011;25670;44.782;10.356;2023-07-20T19:42:19;15.70;;;6.05;;
39982;SDS011;25670;44.782;10.356;2023-07-20T19:44:45;14.40;;;7.20;;
39982;SDS011;25670;44.782;10.356;2023-07-20T19:47:11;6.95;;;6.25;;
39982;SDS011;25670;44.782;10.356;2023-07-20T19:49:38;14.70;;;6.22;;
39982;SDS011;25670;44.782;10.356;2023-07-20T19:52:04;11.75;;;6.22;;
39982;SDS011;25670;44.782;10.356;2023-07-20T19:54:30;17.95;;;6.30;;
39982;SDS011;25670;44.782;10.356;2023-07-20T19:56:57;20.13;;;7.07;;
39982;SDS011;25670;44.782;10.356;2023-07-20T19:59:23;11.23;;;6.40;;
39982;SDS011;25670;44.782;10.356;2023-07-20T20:01:49;14.65;;;7.00;;
39982;SDS011;25670;44.782;10.356;2023-07-20T20:04:15;11.93;;;6.75;;
39982;SDS011;25670;44.782;10.356;2023-07-20T20:06:45;13.43;;;6.72;;
39982;SDS011;25670;44.782;10.356;2023-07-20T20:09:17;9.57;;;6.78;;
39982;SDS011;25670;44.782;10.356;2023-07-20T20:11:43;9.40;;;6.88;;
39982;SDS011;25670;44.782;10.356;2023-07-20T20:14:10;9.68;;;6.38;;
39982;SDS011;25670;44.782;10.356;2023-07-20T20:16:37;10.98;;;7.32;;
39982;SDS011;25670;44.782;10.356;2023-07-20T20:19:03;11.57;;;6.32;;
39982;SDS011;25670;44.782;10.356;2023-07-20T20:21:31;11.10;;;6.45;;
39982;SDS011;25670;44.782;10.356;2023-07-20T20:24:01;24.10;;;7.13;;
39982;SDS011;25670;44.782;10.356;2023-07-20T20:26:27;17.48;;;6.78;;
39982;SDS011;25670;44.782;10.356;2023-07-20T20:28:53;11.85;;;6.97;;
39982;SDS011;25670;44.782;10.356;2023-07-20T20:31:20;13.82;;;7.35;;
39982;SDS011;25670;44.782;10.356;2023-07-20T20:33:46;14.48;;;8.20;;
39982;SDS011;25670;44.782;10.356;2023-07-20T20:36:13;10.93;;;8.25;;
39982;SDS011;25670;44.782;10.356;2023-07-20T20:38:41;19.75;;;8.73;;
39982;SDS011;25670;44.782;10.356;2023-07-20T20:41:07;11.65;;;8.52;;
39982;SDS011;25670;44.782;10.356;2023-07-20T20:43:34;17.17;;;7.65;;
39982;SDS011;25670;44.782;10.356;2023-07-20T20:46:03;12.05;;;8.27;;
39982;SDS011;25670;44.782;10.356;2023-07-20T20:48:30;13.32;;;8.25;;
39982;SDS011;25670;44.782;10.356;2023-07-20T20:51:01;19.75;;;8.70;;
39982;SDS011;25670;44.782;10.356;2023-07-20T20:53:27;16.20;;;8.23;;
39982;SDS011;25670;44.782;10.356;2023-07-20T20:55:55;23.00;;;8.27;;
39982;SDS011;25670;44.782;10.356;2023-07-20T20:58:22;23.60;;;8.60;;
39982;SDS011;25670;44.782;10.356;2023-07-20T21:00:49;15.35;;;7.95;;
39982;SDS011;25670;44.782;10.356;2023-07-20T21:03:15;14.73;;;8.65;;
39982;SDS011;25670;44.782;10.356;2023-07-20T21:05:41;18.77;;;8.00;;
39982;SDS011;25670;44.782;10.356;2023-07-20T21:08:07;18.17;;;8.48;;
39982;SDS011;25670;44.782;10.356;2023-07-20T21:10:34;19.98;;;8.50;;
39982;SDS011;25670;44.782;10.356;2023-07-20T21:13:01;12.82;;;8.80;;
39982;SDS011;25670;44.782;10.356;2023-07-20T21:15:29;16.27;;;8.32;;
39982;SDS011;25670;44.782;10.356;2023-07-20T21:17:56;19.77;;;8.50;;
39982;SDS011;25670;44.782;10.356;2023-07-20T21:20:22;12.98;;;8.27;;
39982;SDS011;25670;44.782;10.356;2023-07-20T21:22:48;17.05;;;8.88;;
39982;SDS011;25670;44.782;10.356;2023-07-20T21:25:15;21.73;;;9.05;;
39982;SDS011;25670;44.782;10.356;2023-07-20T21:27:41;18.08;;;9.40;;
39982;SDS011;25670;44.782;10.356;2023-07-20T21:30:09;15.88;;;9.57;;
39982;SDS011;25670;44.782;10.356;2023-07-20T21:32:36;16.13;;;8.68;;
39982;SDS011;25670;44.782;10.356;2023-07-20T21:35:02;16.52;;;8.80;;
39982;SDS011;25670;44.782;10.356;2023-07-20T21:37:31;26.33;;;9.18;;
39982;SDS011;25670;44.782;10.356;2023-07-20T21:39:57;23.42;;;8.70;;
39982;SDS011;25670;44.782;10.356;2023-07-20T21:42:24;10.90;;;8.27;;
39982;SDS011;25670;44.782;10.356;2023-07-20T21:44:50;15.52;;;8.02;;
39982;SDS011;25670;44.782;10.356;2023-07-20T21:47:16;15.02;;;9.02;;
39982;SDS011;25670;44.782;10.356;2023-07-20T21:49:44;13.48;;;7.43;;
39982;SDS011;25670;44.782;10.356;2023-07-20T21:52:10;14.35;;;7.45;;
39982;SDS011;25670;44.782;10.356;2023-07-20T21:54:36;15.85;;;7.50;;
39982;SDS011;25670;44.782;10.356;2023-07-20T21:57:03;15.25;;;8.00;;
39982;SDS011;25670;44.782;10.356;2023-07-20T21:59:29;15.77;;;6.65;;
39982;SDS011;25670;44.782;10.356;2023-07-20T22:01:55;11.27;;;7.03;;
39982;SDS011;25670;44.782;10.356;2023-07-20T22:04:22;10.65;;;7.35;;
39982;SDS011;25670;44.782;10.356;2023-07-20T22:06:48;10.70;;;6.20;;
39982;SDS011;25670;44.782;10.356;2023-07-20T22:09:15;17.98;;;6.88;;
39982;SDS011;25670;44.782;10.356;2023-07-20T22:15:31;15.27;;;6.13;;
39982;SDS011;25670;44.782;10.356;2023-07-20T22:17:59;11.05;;;6.50;;
39982;SDS011;25670;44.782;10.356;2023-07-20T22:20:34;11.52;;;6.28;;
39982;SDS011;25670;44.782;10.356;2023-07-20T22:23:00;15.65;;;6.93;;
39982;SDS011;25670;44.782;10.356;2023-07-20T22:25:27;10.65;;;6.70;;
39982;SDS011;25670;44.782;10.356;2023-07-20T22:35:30;10.05;;;7.63;;
39982;SDS011;25670;44.782;10.356;2023-07-20T22:41:22;16.88;;;7.32;;
39982;SDS011;25670;44.782;10.356;2023-07-20T22:47:24;9.57;;;6.93;;
39982;SDS011;25670;44.782;10.356;2023-07-20T22:49:51;11.10;;;7.18;;
39982;SDS011;25670;44.782;10.356;2023-07-20T22:54:57;21.15;;;7.57;;
39982;SDS011;25670;44.782;10.356;2023-07-20T22:57:23;17.75;;;6.70;;
39982;SDS011;25670;44.782;10.356;2023-07-20T22:59:59;9.65;;;6.15;;
39982;SDS011;25670;44.782;10.356;2023-07-20T23:02:26;15.90;;;6.93;;
39982;SDS011;25670;44.782;10.356;2023-07-20T23:08:25;10.82;;;6.95;;
39982;SDS011;25670;44.782;10.356;2023-07-20T23:10:51;11.30;;;6.75;;
39982;SDS011;25670;44.782;10.356;2023-07-20T23:13:18;13.88;;;7.00;;
39982;SDS011;25670;44.782;10.356;2023-07-20T23:15:45;8.80;;;7.13;;
39982;SDS011;25670;44.782;10.356;2023-07-20T23:18:30;14.18;;;7.30;;
39982;SDS011;25670;44.782;10.356;2023-07-20T23:20:56;10.90;;;6.82;;
39982;SDS011;25670;44.782;10.356;2023-07-20T23:30:01;14.05;;;8.70;;
39982;SDS011;25670;44.782;10.356;2023-07-20T23:32:28;9.05;;;8.15;;
39982;SDS011;25670;44.782;10.356;2023-07-20T23:34:55;13.48;;;7.97;;
39982;SDS011;25670;44.782;10.356;2023-07-20T23:49:38;11.15;;;7.07;;
39982;SDS011;25670;44.782;10.356;2023-07-20T23:55:06;14.70;;;7.50;;
39982;SDS011;25670;44.782;10.356;2023-07-20T23:57:37;19.58;;;8.98;;
